Time;durP1;ratioP1;P1;durP2;ratioP2;P2;SDS_P1;SDS_P2;PMS_P1;PMS_P2;Temp;Humidity;BMP_temperature;BMP_pressure;BME280_temperature;BME280_humidity;BME280_pressure;Samples;Min_cycle;Max_cycle;Signal;HPM_P1;HPM_P2
2023/11/03 00:00:16;;;;;;;3.13;0.73;;;13.80;99.90;;;;;;4983183;28;20172;-76
2023/11/03 00:02:43;;;;;;;5.23;0.80;;;13.80;99.90;;;;;;4984295;28;20176;-77
2023/11/03 00:05:12;;;;;;;2.43;0.70;;;13.80;99.90;;;;;;4983447;28;20594;-77
2023/11/03 00:07:41;;;;;;;3.90;1.30;;;13.80;99.90;;;;;;4984299;28;20694;-77
2023/11/03 00:10:09;;;;;;;3.20;0.60;;;13.80;99.90;;;;;;4991459;28;20733;-77
2023/11/03 00:12:36;;;;;;;4.20;0.90;;;13.80;99.90;;;;;;4993381;28;20674;-77
2023/11/03 00:15:03;;;;;;;1.80;0.60;;;13.80;99.90;;;;;;4992242;28;20620;-77
2023/11/03 00:17:29;;;;;;;3.92;1.30;;;13.80;99.90;;;;;;4993076;28;20179;-77
2023/11/03 00:19:55;;;;;;;5.23;1.30;;;13.80;99.90;;;;;;4992003;28;20186;-77
2023/11/03 00:22:20;;;;;;;1.90;0.70;;;13.80;99.90;;;;;;4993086;28;20235;-77
2023/11/03 00:24:46;;;;;;;3.30;0.70;;;13.80;99.90;;;;;;4991879;28;20180;-77
2023/11/03 00:27:12;;;;;;;5.63;0.80;;;13.80;99.90;;;;;;4991934;28;20175;-77
2023/11/03 00:29:38;;;;;;;3.17;0.80;;;13.80;99.90;;;;;;4988854;28;20571;-77
2023/11/03 00:32:04;;;;;;;3.93;0.63;;;13.80;99.90;;;;;;4990060;28;20206;-77
2023/11/03 00:34:29;;;;;;;4.50;1.20;;;13.80;99.90;;;;;;4987854;28;20596;-77
2023/11/03 00:36:55;;;;;;;6.10;0.70;;;13.80;99.90;;;;;;4989846;28;20744;-76
2023/11/03 00:39:21;;;;;;;2.30;0.90;;;13.80;99.90;;;;;;4989669;28;20531;-77
2023/11/03 00:41:49;;;;;;;4.37;1.27;;;13.80;99.90;;;;;;4972968;28;20615;-77
2023/11/03 00:44:17;;;;;;;3.90;1.10;;;13.80;99.90;;;;;;4974691;28;20177;-77
2023/11/03 00:46:44;;;;;;;2.53;0.70;;;13.80;99.90;;;;;;4989828;28;20635;-77
2023/11/03 00:49:13;;;;;;;2.97;0.80;;;13.80;99.90;;;;;;4990459;28;20598;-77
2023/11/03 00:51:39;;;;;;;7.13;0.70;;;13.80;99.90;;;;;;4988534;28;20650;-76
2023/11/03 00:54:06;;;;;;;2.50;0.70;;;13.90;99.90;;;;;;4988482;28;20892;-77
2023/11/03 00:56:33;;;;;;;3.73;0.70;;;13.80;99.90;;;;;;4971472;28;20615;-76
2023/11/03 00:59:00;;;;;;;3.03;0.70;;;13.80;99.90;;;;;;4989579;28;20590;-77
2023/11/03 01:01:26;;;;;;;1.87;0.70;;;13.80;99.90;;;;;;4989008;28;20591;-77
2023/11/03 01:03:54;;;;;;;2.77;0.60;;;13.80;99.90;;;;;;4990414;28;20654;-77
2023/11/03 01:06:22;;;;;;;5.33;1.03;;;13.80;99.90;;;;;;4988581;28;20603;-77
2023/11/03 01:08:47;;;;;;;1.93;0.53;;;13.80;99.90;;;;;;4988796;28;20591;-76
2023/11/03 01:11:13;;;;;;;3.10;0.60;;;13.80;99.90;;;;;;4988912;28;20700;-77
2023/11/03 01:13:39;;;;;;;3.10;0.97;;;13.80;99.90;;;;;;4972403;28;20217;-76
2023/11/03 01:16:09;;;;;;;2.53;0.60;;;13.70;99.90;;;;;;4972186;28;20222;-77
2023/11/03 01:18:39;;;;;;;4.47;0.80;;;13.80;99.90;;;;;;4988543;28;20634;-76
2023/11/03 01:21:12;;;;;;;1.83;0.60;;;13.80;99.90;;;;;;4988444;28;20595;-77
2023/11/03 01:23:42;;;;;;;1.60;0.60;;;13.70;99.90;;;;;;4988400;28;20587;-77
2023/11/03 01:26:12;;;;;;;3.00;0.80;;;13.70;99.90;;;;;;4987910;28;20591;-77
2023/11/03 01:28:38;;;;;;;3.53;0.60;;;13.70;99.90;;;;;;4973490;28;20610;-77
2023/11/03 01:31:07;;;;;;;4.13;0.63;;;13.70;99.90;;;;;;4973929;28;20642;-77
2023/11/03 01:33:37;;;;;;;7.83;1.13;;;13.70;99.90;;;;;;4987784;28;20178;-77
2023/11/03 01:36:04;;;;;;;1.87;0.87;;;13.70;99.90;;;;;;4989612;28;20575;-76
2023/11/03 01:38:36;;;;;;;2.60;0.60;;;13.70;99.90;;;;;;4988134;28;20638;-76
2023/11/03 01:41:02;;;;;;;1.40;0.50;;;13.60;99.90;;;;;;4987066;28;20591;-76
2023/11/03 01:43:30;;;;;;;3.67;1.43;;;13.60;99.90;;;;;;4992586;28;20575;-76
2023/11/03 01:45:59;;;;;;;1.50;0.50;;;13.60;99.90;;;;;;4974093;28;20589;-77
2023/11/03 01:48:31;;;;;;;3.33;0.73;;;13.60;99.90;;;;;;4989102;28;20646;-76
2023/11/03 01:51:00;;;;;;;4.53;0.60;;;13.60;99.90;;;;;;4990773;28;20623;-76
2023/11/03 01:53:30;;;;;;;3.10;0.70;;;13.60;99.90;;;;;;4973361;28;20674;-76
2023/11/03 01:55:58;;;;;;;2.37;0.57;;;13.60;99.90;;;;;;4975375;28;20629;-76
2023/11/03 01:58:24;;;;;;;3.10;0.63;;;13.60;99.90;;;;;;4993230;28;20969;-77
2023/11/03 02:00:51;;;;;;;1.83;0.50;;;13.60;99.90;;;;;;4976985;28;20587;-77
2023/11/03 02:03:17;;;;;;;2.63;0.57;;;13.60;99.90;;;;;;4993620;28;20674;-76
2023/11/03 02:05:43;;;;;;;2.53;0.47;;;13.60;99.90;;;;;;4994834;28;20638;-78
2023/11/03 02:08:09;;;;;;;2.60;0.50;;;13.60;99.90;;;;;;4998005;28;20618;-77
2023/11/03 02:10:35;;;;;;;1.47;0.60;;;13.60;99.90;;;;;;4993695;28;20638;-78
2023/11/03 02:13:01;;;;;;;3.53;0.60;;;13.60;99.90;;;;;;4995534;28;20598;-77
2023/11/03 02:15:27;;;;;;;2.33;0.70;;;13.50;99.90;;;;;;4977779;28;20178;-77
2023/11/03 02:17:52;;;;;;;1.97;0.60;;;13.50;99.90;;;;;;4977975;28;20699;-77
2023/11/03 02:20:18;;;;;;;1.53;0.50;;;13.50;99.90;;;;;;4977497;28;20179;-77
2023/11/03 02:22:44;;;;;;;2.33;0.80;;;13.50;99.90;;;;;;4977445;28;20187;-77
2023/11/03 02:25:11;;;;;;;1.97;0.60;;;13.50;99.90;;;;;;4976774;28;20168;-77
2023/11/03 02:27:36;;;;;;;1.80;0.50;;;13.50;99.90;;;;;;4979264;28;20206;-77
2023/11/03 02:30:03;;;;;;;1.97;0.50;;;13.50;99.90;;;;;;4996307;28;20575;-78
2023/11/03 02:32:28;;;;;;;1.95;0.60;;;13.50;99.90;;;;;;4979767;28;20666;-77
2023/11/03 02:34:54;;;;;;;2.40;0.60;;;13.50;99.90;;;;;;4995956;28;20174;-77
2023/11/03 02:37:20;;;;;;;2.63;0.53;;;13.50;99.90;;;;;;4995790;28;20200;-77
2023/11/03 02:39:47;;;;;;;2.57;0.67;;;13.40;99.90;;;;;;4996503;28;20270;-77
2023/11/03 02:42:14;;;;;;;1.90;0.70;;;13.50;99.90;;;;;;4981493;28;20206;-77
2023/11/03 02:44:40;;;;;;;1.73;0.50;;;13.40;99.90;;;;;;4982701;28;20618;-77
2023/11/03 02:47:06;;;;;;;2.37;0.50;;;13.40;99.90;;;;;;4980232;28;20631;-77
2023/11/03 02:49:33;;;;;;;3.03;0.60;;;13.40;99.90;;;;;;4994117;28;20180;-77
2023/11/03 02:51:59;;;;;;;3.80;1.13;;;13.40;99.90;;;;;;4973188;28;20619;-76
2023/11/03 02:54:24;;;;;;;3.03;0.70;;;13.40;99.90;;;;;;4986576;28;20649;-76
2023/11/03 02:56:51;;;;;;;2.47;0.70;;;13.40;99.90;;;;;;4969642;28;20405;-76
2023/11/03 02:59:17;;;;;;;3.40;1.00;;;13.40;99.90;;;;;;4985698;28;20255;-76
2023/11/03 03:01:43;;;;;;;3.23;0.60;;;13.40;99.90;;;;;;4969323;28;20606;-76
2023/11/03 03:04:08;;;;;;;7.60;1.30;;;13.40;99.90;;;;;;4969447;28;20250;-76
2023/11/03 03:06:35;;;;;;;6.50;0.70;;;13.40;99.90;;;;;;4985598;28;20607;-76
2023/11/03 03:09:01;;;;;;;1.90;0.60;;;13.30;99.90;;;;;;4984988;28;20179;-76
2023/11/03 03:11:27;;;;;;;3.93;0.60;;;13.30;99.90;;;;;;4985009;28;20669;-77
2023/11/03 03:13:53;;;;;;;1.70;0.80;;;13.30;99.90;;;;;;4968320;28;20587;-76
2023/11/03 03:16:21;;;;;;;2.50;0.70;;;13.30;99.90;;;;;;4969642;28;20168;-77
2023/11/03 03:18:47;;;;;;;4.55;0.60;;;13.30;99.90;;;;;;4984679;28;20256;-77
2023/11/03 03:21:16;;;;;;;1.90;1.17;;;13.20;99.90;;;;;;4984528;28;20180;-77
2023/11/03 03:23:42;;;;;;;3.20;0.70;;;13.20;99.90;;;;;;4982561;28;20183;-76
2023/11/03 03:26:08;;;;;;;4.03;0.80;;;13.10;99.90;;;;;;4981221;28;20198;-76
2023/11/03 03:28:34;;;;;;;2.20;0.57;;;13.10;99.90;;;;;;4973383;28;20200;-77
2023/11/03 03:31:00;;;;;;;2.70;0.80;;;13.00;99.90;;;;;;4976192;28;20207;-76
2023/11/03 03:33:27;;;;;;;1.40;0.60;;;12.90;99.90;;;;;;4995677;28;20180;-76
2023/11/03 03:35:52;;;;;;;3.00;0.70;;;12.90;99.90;;;;;;4986843;28;20186;-76
2023/11/03 03:38:18;;;;;;;2.40;0.67;;;12.80;99.90;;;;;;4967933;28;20234;-77
2023/11/03 03:40:44;;;;;;;1.70;0.60;;;12.80;99.90;;;;;;4983629;28;20184;-76
2023/11/03 03:43:10;;;;;;;1.67;0.70;;;12.70;99.90;;;;;;4985149;28;20579;-77
2023/11/03 03:45:35;;;;;;;1.77;0.53;;;12.60;99.90;;;;;;4967055;28;20657;-77
2023/11/03 03:48:01;;;;;;;6.17;1.20;;;12.60;99.90;;;;;;4983606;28;20195;-76
2023/11/03 03:50:27;;;;;;;2.17;0.70;;;12.60;99.90;;;;;;4968287;28;20180;-76
2023/11/03 03:52:53;;;;;;;2.83;0.80;;;12.50;99.90;;;;;;4984632;28;20246;-77
2023/11/03 03:55:18;;;;;;;3.77;0.73;;;12.50;99.90;;;;;;4989018;28;20180;-76
2023/11/03 03:57:45;;;;;;;2.60;0.67;;;12.50;99.90;;;;;;4975151;28;20206;-76
2023/11/03 04:00:11;;;;;;;1.55;0.60;;;12.40;99.90;;;;;;4986596;28;20264;-76
2023/11/03 04:02:37;;;;;;;3.88;0.70;;;12.30;99.90;;;;;;4981556;28;20191;-76
2023/11/03 04:05:03;;;;;;;4.17;0.83;;;12.30;99.90;;;;;;4981788;28;20176;-76
2023/11/03 04:07:29;;;;;;;2.65;0.80;;;12.20;99.90;;;;;;4964478;28;20206;-76
2023/11/03 04:09:55;;;;;;;2.53;1.00;;;12.20;99.90;;;;;;4987208;28;20175;-76
2023/11/03 04:12:21;;;;;;;3.40;0.80;;;12.10;99.90;;;;;;5000819;28;20632;-76
2023/11/03 04:14:46;;;;;;;3.80;1.07;;;12.10;99.90;;;;;;5001751;28;20175;-77
2023/11/03 04:17:12;;;;;;;2.40;0.70;;;12.00;99.90;;;;;;5000882;28;20317;-76
2023/11/03 04:19:38;;;;;;;3.73;0.63;;;12.00;99.90;;;;;;5001113;28;20179;-76
2023/11/03 04:22:03;;;;;;;2.07;0.80;;;12.00;99.90;;;;;;5001937;28;20217;-76
2023/11/03 04:24:29;;;;;;;3.20;0.70;;;11.90;99.90;;;;;;5002862;28;20265;-76
2023/11/03 04:26:55;;;;;;;3.10;1.00;;;11.90;99.90;;;;;;5000222;28;20290;-76
2023/11/03 04:29:20;;;;;;;1.97;0.70;;;11.90;99.90;;;;;;5001656;28;20619;-76
2023/11/03 04:31:46;;;;;;;4.20;0.87;;;11.90;99.90;;;;;;5000833;28;20202;-76
2023/11/03 04:34:12;;;;;;;2.07;0.63;;;11.90;99.90;;;;;;5009282;28;20177;-76
2023/11/03 04:36:38;;;;;;;1.70;0.70;;;11.80;99.90;;;;;;5010330;28;20269;-76
2023/11/03 04:39:05;;;;;;;3.03;0.77;;;11.90;99.90;;;;;;5000624;28;20159;-76
2023/11/03 04:41:30;;;;;;;4.40;0.90;;;11.90;99.90;;;;;;5000432;28;20514;-76
2023/11/03 04:43:56;;;;;;;3.70;0.77;;;11.90;99.90;;;;;;4999208;28;20175;-76
2023/11/03 04:46:23;;;;;;;1.90;0.60;;;11.90;99.90;;;;;;4999912;28;20175;-76
2023/11/03 04:48:49;;;;;;;4.68;1.10;;;11.80;99.90;;;;;;4999055;28;20267;-76
2023/11/03 04:51:15;;;;;;;3.17;1.05;;;11.80;99.90;;;;;;4999679;28;20681;-76
2023/11/03 04:53:42;;;;;;;3.30;0.87;;;11.80;99.90;;;;;;4999137;28;20221;-76
2023/11/03 04:56:07;;;;;;;2.42;0.70;;;11.70;99.90;;;;;;5000970;28;20585;-76
2023/11/03 04:58:33;;;;;;;4.40;0.77;;;11.70;99.90;;;;;;4999148;28;20286;-76
2023/11/03 05:00:59;;;;;;;2.50;0.80;;;11.70;99.90;;;;;;4998892;28;20191;-76
2023/11/03 05:03:24;;;;;;;4.30;1.10;;;11.60;99.90;;;;;;4991190;28;20175;-76
2023/11/03 05:05:50;;;;;;;3.20;0.80;;;11.60;99.90;;;;;;4980985;28;20203;-76
2023/11/03 05:08:16;;;;;;;2.47;0.70;;;11.60;99.90;;;;;;4980061;28;20203;-76
2023/11/03 05:10:42;;;;;;;1.80;0.70;;;11.60;99.90;;;;;;4980989;28;20203;-77
2023/11/03 05:13:08;;;;;;;1.87;0.70;;;11.50;99.90;;;;;;4979828;28;20249;-77
2023/11/03 05:15:34;;;;;;;3.93;1.00;;;11.50;99.90;;;;;;4988046;28;20185;-76
2023/11/03 05:18:00;;;;;;;3.70;0.80;;;11.40;99.90;;;;;;4997767;28;20628;-76
2023/11/03 05:20:26;;;;;;;3.43;0.70;;;11.40;99.90;;;;;;4998167;28;20230;-76
2023/11/03 05:22:52;;;;;;;4.93;1.05;;;11.40;99.90;;;;;;5000234;28;20174;-77
2023/11/03 05:25:18;;;;;;;3.00;0.70;;;11.40;99.90;;;;;;5000295;28;20392;-77
2023/11/03 05:27:44;;;;;;;2.65;0.80;;;11.30;99.90;;;;;;4995855;28;20198;-76
2023/11/03 05:30:10;;;;;;;2.33;1.10;;;11.30;99.90;;;;;;4981867;28;20266;-76
2023/11/03 05:32:36;;;;;;;6.05;0.85;;;11.30;99.90;;;;;;4982497;28;20199;-76
2023/11/03 05:35:03;;;;;;;3.10;0.77;;;11.20;99.90;;;;;;4982987;28;20186;-76
2023/11/03 05:37:29;;;;;;;4.88;2.17;;;11.20;99.90;;;;;;4981362;28;20231;-77
2023/11/03 05:39:56;;;;;;;3.72;1.00;;;11.20;99.90;;;;;;4984490;28;20171;-77
2023/11/03 05:42:21;;;;;;;4.70;1.00;;;11.20;99.90;;;;;;4984402;28;20187;-76
2023/11/03 05:44:47;;;;;;;9.23;1.00;;;11.20;99.90;;;;;;4984497;28;20642;-76
2023/11/03 05:47:13;;;;;;;2.80;0.80;;;11.20;99.90;;;;;;4986802;28;20659;-76
2023/11/03 05:49:39;;;;;;;1.90;0.70;;;11.10;99.90;;;;;;4986114;28;20184;-77
2023/11/03 05:52:05;;;;;;;8.00;0.87;;;11.10;99.90;;;;;;4980986;28;20207;-76
2023/11/03 05:54:30;;;;;;;3.28;0.88;;;11.10;99.90;;;;;;4981107;28;20597;-76
2023/11/03 05:56:56;;;;;;;3.83;0.80;;;11.10;99.90;;;;;;4980325;28;20278;-76
2023/11/03 05:59:22;;;;;;;3.83;0.80;;;11.10;99.90;;;;;;4964018;28;20180;-76
2023/11/03 06:01:47;;;;;;;4.93;0.80;;;11.10;99.90;;;;;;4980201;28;20186;-76
2023/11/03 06:04:14;;;;;;;1.87;0.70;;;11.10;99.90;;;;;;4978624;28;20543;-76
2023/11/03 06:06:41;;;;;;;5.10;0.90;;;11.10;99.90;;;;;;4980333;28;20204;-76
2023/11/03 06:09:07;;;;;;;7.25;1.05;;;11.10;99.90;;;;;;4977785;28;20168;-76
2023/11/03 06:11:32;;;;;;;5.20;1.47;;;11.10;99.90;;;;;;4961330;28;20199;-76
2023/11/03 06:13:58;;;;;;;4.03;1.10;;;11.10;99.90;;;;;;4968969;28;20188;-76
2023/11/03 06:16:24;;;;;;;5.03;0.90;;;11.10;99.90;;;;;;4964225;29;20172;-76
2023/11/03 06:18:49;;;;;;;2.70;0.80;;;11.10;99.90;;;;;;4950076;29;20539;-76
2023/11/03 06:21:15;;;;;;;2.20;0.90;;;11.10;99.90;;;;;;4965142;29;20191;-76
2023/11/03 06:23:41;;;;;;;6.67;1.07;;;11.10;99.90;;;;;;4964144;28;20200;-76
2023/11/03 06:26:07;;;;;;;7.07;1.00;;;11.10;99.90;;;;;;4948512;29;20191;-76
2023/11/03 06:28:33;;;;;;;3.93;1.03;;;11.10;99.90;;;;;;4944990;29;20758;-76
2023/11/03 06:30:59;;;;;;;5.97;1.33;;;11.10;99.90;;;;;;4963686;28;20716;-76
2023/11/03 06:33:25;;;;;;;3.83;1.10;;;11.10;99.90;;;;;;4963719;28;20674;-76
2023/11/03 06:35:50;;;;;;;6.43;1.43;;;11.10;99.90;;;;;;4945889;29;20187;-76
2023/11/03 06:38:17;;;;;;;3.70;0.90;;;11.10;99.90;;;;;;4960873;28;20243;-76
2023/11/03 06:40:43;;;;;;;7.45;2.22;;;11.10;99.90;;;;;;4964025;29;20175;-76
2023/11/03 06:43:08;;;;;;;3.92;1.15;;;11.10;99.90;;;;;;4971796;29;20183;-77
2023/11/03 06:45:34;;;;;;;4.60;1.23;;;11.10;99.90;;;;;;4969037;28;20180;-75
2023/11/03 06:48:00;;;;;;;4.50;1.20;;;11.10;99.90;;;;;;4975562;28;20180;-77
2023/11/03 06:50:27;;;;;;;3.20;1.13;;;11.10;99.90;;;;;;4989834;28;20239;-77
2023/11/03 06:52:54;;;;;;;5.10;1.10;;;11.10;99.90;;;;;;4990498;28;20172;-76
2023/11/03 06:55:21;;;;;;;2.70;0.90;;;11.10;99.90;;;;;;4988654;28;20231;-76
2023/11/03 06:57:50;;;;;;;2.47;0.80;;;11.10;99.90;;;;;;4988218;28;20270;-76
2023/11/03 07:00:16;;;;;;;5.07;0.80;;;11.20;99.90;;;;;;4986314;28;20175;-75
2023/11/03 07:02:42;;;;;;;3.35;0.90;;;11.20;99.90;;;;;;4987062;28;20179;-77
2023/11/03 07:05:09;;;;;;;3.08;1.00;;;11.20;99.90;;;;;;4969710;28;20187;-76
2023/11/03 07:07:36;;;;;;;3.97;1.00;;;11.20;99.90;;;;;;4983407;28;20196;-76
2023/11/03 07:10:03;;;;;;;2.47;0.80;;;11.20;99.90;;;;;;4986097;28;20304;-76
2023/11/03 07:12:30;;;;;;;5.70;1.00;;;11.30;99.90;;;;;;4982225;28;20280;-76
2023/11/03 07:14:56;;;;;;;4.55;1.00;;;11.30;99.90;;;;;;4983669;28;20255;-76
2023/11/03 07:17:22;;;;;;;3.85;1.48;;;11.30;99.90;;;;;;4964405;28;20239;-76
2023/11/03 07:19:48;;;;;;;3.60;0.90;;;11.40;99.90;;;;;;4980933;28;20180;-76
2023/11/03 07:22:15;;;;;;;21.60;2.40;;;11.40;99.90;;;;;;4980381;28;20215;-76
2023/11/03 07:24:42;;;;;;;4.32;1.60;;;11.40;99.90;;;;;;4985100;28;20190;-76
2023/11/03 07:27:08;;;;;;;4.95;1.20;;;11.50;99.90;;;;;;4984070;28;20263;-76
2023/11/03 07:29:35;;;;;;;8.32;1.55;;;11.50;99.90;;;;;;4984258;28;20269;-76
2023/11/03 07:32:00;;;;;;;4.45;0.80;;;11.60;99.90;;;;;;4984165;28;20202;-75
2023/11/03 07:34:27;;;;;;;9.45;1.23;;;11.60;99.90;;;;;;4984509;28;20207;-76
2023/11/03 07:36:52;;;;;;;3.23;0.97;;;11.70;99.90;;;;;;4988511;28;20230;-76
2023/11/03 07:39:18;;;;;;;5.70;0.93;;;11.80;99.90;;;;;;4989169;28;20598;-76
2023/11/03 07:41:44;;;;;;;3.20;0.90;;;11.80;99.90;;;;;;4985831;28;20268;-76
2023/11/03 07:44:12;;;;;;;4.70;0.83;;;11.80;99.90;;;;;;4989076;28;20179;-76
2023/11/03 07:46:38;;;;;;;3.22;0.90;;;11.90;99.90;;;;;;4971301;28;20654;-76
2023/11/03 07:49:04;;;;;;;10.33;0.90;;;12.00;99.90;;;;;;4985367;28;20160;-76
2023/11/03 07:51:30;;;;;;;4.10;0.80;;;12.00;99.90;;;;;;4987466;28;20231;-76
2023/11/03 07:53:59;;;;;;;3.42;0.90;;;12.10;99.90;;;;;;4987941;28;20176;-77
2023/11/03 07:56:28;;;;;;;4.45;1.23;;;12.20;99.90;;;;;;4986892;28;20202;-76
2023/11/03 07:58:55;;;;;;;4.35;0.70;;;12.20;99.90;;;;;;4987471;28;20175;-76
2023/11/03 08:01:21;;;;;;;8.07;0.95;;;12.30;99.90;;;;;;4989223;28;20199;-76
2023/11/03 08:03:47;;;;;;;3.30;1.00;;;12.40;99.90;;;;;;4985903;28;20186;-76
2023/11/03 08:06:13;;;;;;;2.47;0.90;;;12.50;99.90;;;;;;4984838;28;20606;-76
2023/11/03 08:08:41;;;;;;;2.43;0.70;;;12.60;99.90;;;;;;4986128;28;20283;-76
2023/11/03 08:11:08;;;;;;;5.73;1.37;;;12.80;99.90;;;;;;4988513;28;20666;-76
2023/11/03 08:13:34;;;;;;;3.80;0.77;;;12.90;99.90;;;;;;4989486;28;20627;-77
2023/11/03 08:16:01;;;;;;;4.43;0.80;;;13.10;99.90;;;;;;4992354;28;20579;-77
2023/11/03 08:18:30;;;;;;;7.33;1.43;;;13.20;99.90;;;;;;4995514;28;20611;-78
2023/11/03 08:20:56;;;;;;;3.30;0.87;;;13.40;99.90;;;;;;4995571;28;20627;-77
2023/11/03 08:23:22;;;;;;;2.63;0.80;;;13.60;99.90;;;;;;4994787;28;20559;-77
2023/11/03 08:25:48;;;;;;;4.07;0.90;;;13.80;99.90;;;;;;4993831;28;20677;-77
2023/11/03 08:28:15;;;;;;;4.53;1.00;;;14.00;99.90;;;;;;4994338;28;20610;-77
2023/11/03 08:30:41;;;;;;;4.40;1.03;;;14.30;99.90;;;;;;4993308;28;20616;-77
2023/11/03 08:33:07;;;;;;;2.23;0.80;;;14.50;99.90;;;;;;4994123;28;20567;-77
2023/11/03 08:35:34;;;;;;;3.80;0.70;;;14.70;99.90;;;;;;4994735;28;20583;-77
2023/11/03 08:38:01;;;;;;;3.77;1.00;;;14.90;99.90;;;;;;4991501;28;20677;-77
2023/11/03 08:40:26;;;;;;;5.20;0.80;;;15.10;99.90;;;;;;4990896;28;20595;-77
2023/11/03 08:42:53;;;;;;;3.60;0.80;;;15.30;99.90;;;;;;4989766;28;20595;-77
2023/11/03 08:45:21;;;;;;;5.07;2.60;;;15.40;99.90;;;;;;4989840;28;20175;-77
2023/11/03 08:47:47;;;;;;;5.93;1.40;;;15.50;99.90;;;;;;4989113;28;20615;-77
2023/11/03 08:50:17;;;;;;;2.80;0.90;;;15.50;99.90;;;;;;4990651;28;20551;-77
2023/11/03 08:52:47;;;;;;;4.17;1.57;;;15.60;99.90;;;;;;4989234;28;20639;-77
2023/11/03 08:55:14;;;;;;;5.80;1.30;;;15.60;99.90;;;;;;4987792;28;21077;-77
2023/11/03 08:57:41;;;;;;;4.53;1.50;;;15.60;99.90;;;;;;4989325;28;20619;-77
2023/11/03 09:00:11;;;;;;;3.60;0.90;;;15.60;99.90;;;;;;4991599;28;20567;-77
2023/11/03 09:02:38;;;;;;;6.00;1.20;;;15.50;99.90;;;;;;4992863;28;20599;-77
2023/11/03 09:05:07;;;;;;;6.27;1.03;;;15.40;99.90;;;;;;4977334;28;20571;-77
2023/11/03 09:07:35;;;;;;;5.47;1.83;;;15.30;99.90;;;;;;4975220;29;20615;-78
2023/11/03 09:10:03;;;;;;;3.60;0.80;;;15.10;99.90;;;;;;4975683;28;20659;-77
2023/11/03 09:12:32;;;;;;;5.03;1.03;;;15.10;99.90;;;;;;4959114;29;20631;-77
2023/11/03 09:14:58;;;;;;;5.27;1.00;;;15.00;99.90;;;;;;4959740;29;20595;-77
2023/11/03 09:17:24;;;;;;;6.97;1.00;;;14.90;99.90;;;;;;4975478;28;21166;-77
2023/11/03 09:19:50;;;;;;;8.03;1.10;;;14.80;99.90;;;;;;4976541;28;20179;-77
2023/11/03 09:22:16;;;;;;;3.83;1.23;;;14.80;99.90;;;;;;4975277;28;20648;-78
2023/11/03 09:24:42;;;;;;;3.30;0.87;;;14.90;99.90;;;;;;4972207;29;20671;-75
2023/11/03 09:27:08;;;;;;;4.20;0.80;;;14.90;99.90;;;;;;4962967;29;20614;-77
2023/11/03 09:29:34;;;;;;;3.33;1.10;;;14.90;99.90;;;;;;4972640;28;20581;-78
2023/11/03 09:32:01;;;;;;;2.57;0.80;;;14.90;99.90;;;;;;4975266;29;20188;-78
2023/11/03 09:34:27;;;;;;;3.73;1.13;;;15.00;99.90;;;;;;4977600;28;20251;-78
2023/11/03 09:36:53;;;;;;;6.63;1.10;;;15.00;99.90;;;;;;4994937;28;20650;-78
2023/11/03 09:39:20;;;;;;;4.47;0.77;;;15.00;99.90;;;;;;4995027;28;20627;-78
2023/11/03 09:42:01;;;;;;;4.13;0.80;;;15.20;99.90;;;;;;4995022;28;20575;-78
2023/11/03 09:44:27;;;;;;;3.13;0.97;;;15.30;99.90;;;;;;4994193;28;20666;-78
2023/11/03 09:46:55;;;;;;;9.13;1.97;;;15.50;99.90;;;;;;4994628;28;20611;-78
2023/11/03 09:49:20;;;;;;;8.00;1.13;;;16.00;99.90;;;;;;4985853;28;20587;-75
2023/11/03 09:51:47;;;;;;;4.03;1.00;;;16.70;99.90;;;;;;4981415;28;20674;-77
2023/11/03 09:54:14;;;;;;;5.10;0.90;;;17.40;99.90;;;;;;4989704;28;20183;-77
2023/11/03 09:56:46;;;;;;;5.63;1.57;;;18.20;99.90;;;;;;4987377;28;20602;-77
2023/11/03 09:59:15;;;;;;;3.40;1.10;;;18.90;99.90;;;;;;4988515;28;20583;-76
2023/11/03 10:01:41;;;;;;;5.17;1.00;;;19.50;99.90;;;;;;4987718;28;20694;-77
2023/11/03 10:04:08;;;;;;;2.57;1.20;;;19.90;99.90;;;;;;4990988;28;20583;-77
2023/11/03 10:06:37;;;;;;;3.50;1.00;;;20.40;99.90;;;;;;5002328;28;20595;-77
2023/11/03 10:09:05;;;;;;;5.70;1.17;;;20.70;99.90;;;;;;4990433;28;20623;-77
2023/11/03 10:11:32;;;;;;;5.57;1.20;;;21.10;99.90;;;;;;4993305;28;20627;-77
2023/11/03 10:13:57;;;;;;;10.00;1.60;;;21.30;99.90;;;;;;4994554;28;20697;-77
2023/11/03 10:16:23;;;;;;;3.43;0.70;;;21.60;99.90;;;;;;4995862;28;20571;-79
2023/11/03 10:18:49;;;;;;;3.90;0.90;;;21.70;99.90;;;;;;4996380;28;20171;-78
2023/11/03 10:21:15;;;;;;;3.93;1.17;;;21.80;99.90;;;;;;4993389;28;20183;-77
2023/11/03 10:23:40;;;;;;;3.97;0.80;;;21.70;99.90;;;;;;4972622;28;20191;-79
2023/11/03 10:26:06;;;;;;;2.47;0.60;;;21.60;99.90;;;;;;4967820;28;20215;-77
2023/11/03 10:28:32;;;;;;;3.50;0.80;;;21.40;99.90;;;;;;4968867;28;20203;-79
2023/11/03 10:31:03;;;;;;;4.57;1.27;;;21.20;99.90;;;;;;4979783;28;20219;-80
2023/11/03 10:33:29;;;;;;;3.77;0.90;;;20.90;99.90;;;;;;4972857;28;20583;-78
2023/11/03 10:35:55;;;;;;;3.83;1.00;;;20.60;99.90;;;;;;4983957;28;20594;-78
2023/11/03 10:38:23;;;;;;;3.93;1.00;;;20.30;99.60;;;;;;4987054;28;20211;-78
2023/11/03 10:40:52;;;;;;;4.57;1.23;;;19.90;99.40;;;;;;4975995;28;20190;-76
2023/11/03 10:43:23;;;;;;;5.57;1.00;;;19.70;99.60;;;;;;4966216;28;20583;-75
2023/11/03 10:46:14;;;;;;;3.60;0.90;;;19.40;99.80;;;;;;4975565;28;20587;-74
2023/11/03 10:48:45;;;;;;;4.70;1.00;;;19.20;98.90;;;;;;4980674;28;20606;-77
2023/11/03 10:51:25;;;;;;;4.30;1.00;;;19.10;99.90;;;;;;4972838;28;20639;-77
2023/11/03 10:54:00;;;;;;;4.03;0.97;;;18.90;99.60;;;;;;4990342;28;20801;-76
2023/11/03 10:56:27;;;;;;;7.73;1.10;;;18.70;99.80;;;;;;4985167;28;20599;-76
2023/11/03 10:58:55;;;;;;;3.23;0.90;;;18.60;99.90;;;;;;4990107;28;20618;-77
2023/11/03 11:01:31;;;;;;;4.90;0.90;;;18.40;99.90;;;;;;4992531;28;20597;-77
2023/11/03 11:04:03;;;;;;;3.43;1.10;;;18.30;99.70;;;;;;4992080;28;20915;-77
2023/11/03 11:06:34;;;;;;;3.40;0.90;;;18.20;99.90;;;;;;4974907;28;20642;-77
2023/11/03 11:09:08;;;;;;;4.80;1.00;;;17.90;99.60;;;;;;4982410;28;20598;-77
2023/11/03 11:11:37;;;;;;;5.40;1.57;;;17.80;99.50;;;;;;4985500;28;20674;-77
2023/11/03 11:14:18;;;;;;;5.60;1.37;;;17.60;99.90;;;;;;4986249;28;20591;-77
2023/11/03 11:16:45;;;;;;;4.87;1.10;;;17.50;99.90;;;;;;4989345;28;20619;-77
2023/11/03 11:19:14;;;;;;;6.00;0.93;;;17.50;99.90;;;;;;4977989;28;20580;-77
2023/11/03 11:21:49;;;;;;;3.73;1.50;;;17.40;99.90;;;;;;4986715;28;20583;-77
2023/11/03 11:24:21;;;;;;;3.90;0.90;;;17.40;99.90;;;;;;4983964;28;20597;-77
2023/11/03 11:26:49;;;;;;;4.43;0.87;;;17.40;99.90;;;;;;4990120;28;20627;-76
2023/11/03 11:29:26;;;;;;;8.50;0.97;;;17.40;99.90;;;;;;4989307;28;21003;-77
2023/11/03 11:31:52;;;;;;;5.33;1.10;;;17.40;99.90;;;;;;4981898;28;20659;-77
2023/11/03 11:34:20;;;;;;;5.00;0.90;;;17.40;99.90;;;;;;4990078;28;20595;-77
2023/11/03 11:36:51;;;;;;;5.40;1.10;;;17.40;99.90;;;;;;4988076;28;20630;-77
2023/11/03 11:39:18;;;;;;;3.17;1.10;;;17.40;99.90;;;;;;4982166;28;20594;-76
2023/11/03 11:41:59;;;;;;;4.10;1.10;;;17.50;99.90;;;;;;4972766;28;20625;-77
2023/11/03 11:44:27;;;;;;;5.40;1.00;;;17.50;99.90;;;;;;4977381;28;20624;-77
2023/11/03 11:46:57;;;;;;;6.90;1.10;;;17.50;99.90;;;;;;4996985;28;20618;-77
2023/11/03 11:49:26;;;;;;;2.87;0.90;;;17.50;99.90;;;;;;4972811;28;20701;-77
2023/11/03 11:51:58;;;;;;;8.43;1.10;;;17.50;99.90;;;;;;4997685;28;20635;-78
2023/11/03 11:54:24;;;;;;;3.17;0.90;;;17.50;99.90;;;;;;4997335;28;20609;-77
2023/11/03 11:56:51;;;;;;;6.50;1.17;;;17.50;99.90;;;;;;5000191;28;20618;-78
2023/11/03 11:59:19;;;;;;;3.70;0.87;;;17.50;99.90;;;;;;4985436;28;20592;-77
2023/11/03 12:01:46;;;;;;;4.27;0.90;;;17.40;99.90;;;;;;4980147;28;20647;-77
2023/11/03 12:04:16;;;;;;;6.17;1.17;;;17.40;99.90;;;;;;4999547;28;20643;-78
2023/11/03 12:06:44;;;;;;;3.57;0.80;;;17.30;99.90;;;;;;5006622;28;20645;-77
2023/11/03 12:09:11;;;;;;;2.97;0.87;;;17.20;99.90;;;;;;4995021;28;20595;-78
2023/11/03 12:11:38;;;;;;;4.03;1.10;;;17.20;99.90;;;;;;4994471;28;21276;-78
2023/11/03 12:14:05;;;;;;;7.30;1.40;;;17.10;99.90;;;;;;4978740;28;20599;-77
2023/11/03 12:16:31;;;;;;;5.10;1.07;;;17.00;99.90;;;;;;4991155;28;20590;-77
2023/11/03 12:18:56;;;;;;;4.40;1.17;;;17.00;99.90;;;;;;4979484;28;20619;-77
2023/11/03 12:21:25;;;;;;;5.13;1.40;;;17.00;99.90;;;;;;4986185;28;21219;-77
2023/11/03 12:23:55;;;;;;;4.80;1.20;;;17.10;99.90;;;;;;4979132;28;20187;-77
2023/11/03 12:26:21;;;;;;;10.90;1.10;;;17.10;99.90;;;;;;4968186;28;20587;-77
2023/11/03 12:28:47;;;;;;;6.37;1.50;;;17.20;99.90;;;;;;4986754;28;20614;-77
2023/11/03 12:31:13;;;;;;;7.53;1.10;;;17.20;99.90;;;;;;4978704;28;20635;-77
2023/11/03 12:33:39;;;;;;;5.83;1.40;;;17.30;99.90;;;;;;4983206;28;20267;-76
2023/11/03 12:36:09;;;;;;;5.20;1.67;;;17.30;99.90;;;;;;4979934;28;20565;-77
2023/11/03 12:38:46;;;;;;;7.97;1.30;;;17.30;99.90;;;;;;4966274;28;20715;-77
2023/11/03 12:41:19;;;;;;;4.27;1.03;;;17.40;99.90;;;;;;4998648;28;20579;-77
2023/11/03 12:43:59;;;;;;;4.43;1.10;;;17.40;99.90;;;;;;4985889;28;20668;-77